Flugplatz Memmingen Allgau

Bericht für EDJA

vom 19.04. um 13:50 UTC

Wind 5 kt aus 70°

Sichtweite 10 km oder mehr

gute Sicht, keine Wolken < 5000 ft, keine CB, keine Wettererscheinungen (CAVOK)

Temperatur 20.0°C

Taupunkt 4.0°C

Luftfeuchtigkeit 35%

Luftdruck 1026 hPa

EDJA 191350Z 07005KT 030V150 CAVOK 20/04 Q1026

Prognose für EDJA

vom 19.04. um 11:00 UTC

Zwischen 12:00 UTC und 21:00 UTC

Wind 6 kt aus 40°

Sichtweite 10 km oder mehr

keine signifikanten Wettererscheinungen

keine Wolken

TAF EDJA 191100Z 1912/1921 04006KT CAVOK
Impressum